Time;durP1;ratioP1;P1;durP2;ratioP2;P2;SDS_P1;SDS_P2;PMS_P1;PMS_P2;Temp;Humidity;BMP_temperature;BMP_pressure;BME280_temperature;BME280_humidity;BME280_pressure;Samples;Min_cycle;Max_cycle;Signal;HPM_P1;HPM_P2
2022/05/10 00:00:57;;;;;;;0.73;0.73;;;14.10;99.90;;;;;;5062295;28;20508;-64
2022/05/10 00:03:33;;;;;;;1.13;0.70;;;14.20;99.90;;;;;;5061962;28;20803;-64
2022/05/10 00:06:04;;;;;;;1.27;0.67;;;14.30;99.90;;;;;;5062297;28;20487;-64
2022/05/10 00:08:38;;;;;;;0.80;0.80;;;14.30;99.90;;;;;;5061154;28;20440;-63
2022/05/10 00:11:09;;;;;;;0.83;0.83;;;14.20;99.90;;;;;;5063155;28;20475;-64
2022/05/10 00:13:41;;;;;;;1.70;0.93;;;14.00;99.90;;;;;;5061646;28;20573;-64
2022/05/10 00:16:14;;;;;;;0.80;0.80;;;13.80;99.90;;;;;;5054423;28;20492;-64
2022/05/10 00:18:46;;;;;;;1.13;0.90;;;13.60;99.90;;;;;;5059980;28;20464;-66
2022/05/10 00:21:20;;;;;;;1.80;0.90;;;13.30;99.90;;;;;;5060200;28;20524;-64
2022/05/10 00:23:52;;;;;;;0.80;0.70;;;13.30;99.90;;;;;;5059574;28;20452;-64
2022/05/10 00:26:23;;;;;;;1.20;0.90;;;13.30;99.90;;;;;;5061641;28;20459;-63
2022/05/10 00:28:54;;;;;;;1.27;0.80;;;13.40;99.90;;;;;;5060421;28;20781;-65
2022/05/10 00:31:25;;;;;;;0.50;0.50;;;13.40;99.90;;;;;;5059371;28;20573;-64
2022/05/10 00:33:56;;;;;;;1.37;1.00;;;13.40;99.90;;;;;;5059753;28;20449;-64
2022/05/10 00:36:27;;;;;;;1.30;1.00;;;13.30;99.90;;;;;;5053807;28;20580;-64
2022/05/10 00:39:00;;;;;;;1.87;1.07;;;13.20;99.90;;;;;;5059607;28;20470;-65
2022/05/10 00:41:37;;;;;;;1.13;0.80;;;13.20;99.90;;;;;;5060920;28;20466;-65
2022/05/10 00:44:13;;;;;;;2.33;1.00;;;13.30;99.90;;;;;;5058382;28;21071;-65
2022/05/10 00:46:47;;;;;;;1.60;1.07;;;13.30;99.90;;;;;;5059099;28;20842;-64
2022/05/10 00:49:26;;;;;;;0.90;0.90;;;13.10;99.90;;;;;;5063843;28;20456;-64
2022/05/10 00:52:04;;;;;;;1.57;1.10;;;13.00;99.90;;;;;;5049390;28;20459;-63
2022/05/10 00:54:41;;;;;;;1.40;0.97;;;13.00;99.90;;;;;;5062605;28;20440;-64
2022/05/10 00:57:18;;;;;;;2.00;0.80;;;12.90;99.90;;;;;;5057960;28;20494;-65
2022/05/10 00:59:56;;;;;;;1.00;0.80;;;12.90;99.90;;;;;;5061714;28;20462;-66
2022/05/10 01:02:39;;;;;;;1.53;1.40;;;12.90;99.90;;;;;;5063700;28;20463;-67
2022/05/10 01:05:16;;;;;;;1.30;0.67;;;12.70;99.90;;;;;;5061250;28;20502;-67
2022/05/10 01:07:52;;;;;;;0.73;0.73;;;12.50;99.90;;;;;;5050533;28;20456;-68
2022/05/10 01:10:39;;;;;;;2.97;1.03;;;12.50;99.90;;;;;;5062341;28;20486;-67
2022/05/10 01:13:19;;;;;;;3.07;1.07;;;12.60;99.90;;;;;;5059534;28;20495;-66
2022/05/10 01:16:02;;;;;;;1.23;1.13;;;12.50;99.90;;;;;;5064153;28;20475;-67
2022/05/10 01:18:33;;;;;;;1.07;0.90;;;12.40;99.90;;;;;;5062965;28;20570;-66
2022/05/10 01:21:25;;;;;;;1.03;0.60;;;12.50;99.90;;;;;;5064521;28;20487;-65
2022/05/10 01:24:23;;;;;;;1.03;0.80;;;12.40;99.90;;;;;;5055095;28;20477;-66
2022/05/10 01:27:12;;;;;;;1.70;0.70;;;12.60;99.90;;;;;;5057071;28;20475;-66
2022/05/10 01:29:48;;;;;;;1.33;0.60;;;12.60;99.90;;;;;;5061937;28;20523;-66
2022/05/10 01:35:16;;;;;;;0.70;0.70;;;12.80;99.90;;;;;;5060093;28;20528;-65
2022/05/10 01:37:53;;;;;;;0.90;0.70;;;12.90;99.90;;;;;;5064162;28;20530;-66
2022/05/10 01:40:31;;;;;;;0.90;0.80;;;12.90;99.90;;;;;;5062529;28;20475;-66
2022/05/10 01:43:07;;;;;;;1.00;0.77;;;12.90;99.90;;;;;;5062495;28;20460;-66
2022/05/10 01:45:46;;;;;;;2.00;0.83;;;13.00;99.90;;;;;;5062631;28;20470;-65
2022/05/10 01:48:22;;;;;;;0.83;0.83;;;13.00;99.90;;;;;;5063202;28;20486;-65
2022/05/10 01:51:00;;;;;;;1.13;0.70;;;13.00;99.90;;;;;;5061500;28;20564;-66
2022/05/10 01:53:35;;;;;;;1.17;0.50;;;12.90;99.90;;;;;;5061927;28;20475;-66
2022/05/10 01:56:09;;;;;;;0.80;0.60;;;12.90;99.90;;;;;;5060591;28;20496;-65
2022/05/10 01:58:42;;;;;;;0.70;0.70;;;13.00;99.90;;;;;;5057553;28;20452;-65
2022/05/10 02:01:24;;;;;;;1.00;0.90;;;13.00;99.90;;;;;;5064172;28;20548;-62
2022/05/10 02:04:01;;;;;;;0.70;0.70;;;12.80;99.90;;;;;;5063009;28;20459;-65
2022/05/10 02:06:36;;;;;;;0.97;0.70;;;12.70;99.90;;;;;;5063642;28;20552;-65
2022/05/10 02:09:13;;;;;;;0.83;0.60;;;12.70;99.90;;;;;;5060154;28;20456;-64
2022/05/10 02:11:49;;;;;;;1.10;0.80;;;12.60;99.90;;;;;;5062762;28;20452;-64
2022/05/10 02:14:25;;;;;;;0.60;0.60;;;12.60;99.90;;;;;;5052907;28;20757;-64
2022/05/10 02:17:02;;;;;;;1.17;0.60;;;12.60;99.90;;;;;;5058270;28;20506;-64
2022/05/10 02:19:43;;;;;;;0.93;0.70;;;12.50;99.90;;;;;;5063400;28;20447;-64
2022/05/10 02:22:19;;;;;;;0.80;0.70;;;12.40;99.90;;;;;;5063980;28;20441;-64
2022/05/10 02:24:56;;;;;;;0.57;0.50;;;12.40;99.90;;;;;;5060480;28;20460;-66
2022/05/10 02:27:34;;;;;;;0.57;0.57;;;12.30;99.90;;;;;;5060242;28;20478;-64
2022/05/10 02:30:08;;;;;;;2.80;1.00;;;12.30;99.90;;;;;;5062753;28;20448;-64
2022/05/10 02:35:35;;;;;;;1.27;1.17;;;12.00;99.90;;;;;;5061884;28;20849;-63
2022/05/10 02:38:08;;;;;;;2.07;1.10;;;11.90;99.90;;;;;;5062755;28;20507;-64
2022/05/10 02:40:41;;;;;;;1.20;1.10;;;11.70;99.90;;;;;;5063070;28;20459;-63
2022/05/10 02:43:15;;;;;;;1.30;1.20;;;11.70;99.90;;;;;;5060324;28;20464;-63
2022/05/10 02:45:46;;;;;;;1.47;1.13;;;11.70;99.90;;;;;;5055623;28;20503;-63
2022/05/10 02:48:23;;;;;;;1.43;0.80;;;11.60;99.90;;;;;;5062968;28;20483;-63
2022/05/10 02:50:54;;;;;;;0.80;0.80;;;11.50;99.90;;;;;;5063028;28;20444;-63
2022/05/10 02:53:24;;;;;;;0.80;0.80;;;11.50;99.90;;;;;;5061673;28;20448;-63
2022/05/10 02:55:57;;;;;;;1.20;1.10;;;11.50;99.90;;;;;;5063488;28;20544;-63
2022/05/10 02:58:33;;;;;;;1.80;1.00;;;11.50;99.90;;;;;;5061329;28;20840;-63
2022/05/10 03:01:11;;;;;;;0.80;0.80;;;11.50;99.90;;;;;;5062836;28;20459;-63
2022/05/10 03:03:44;;;;;;;0.67;0.67;;;11.50;99.90;;;;;;5061791;28;20464;-63
2022/05/10 03:06:18;;;;;;;0.83;0.80;;;11.40;99.90;;;;;;5060458;28;20487;-63
2022/05/10 03:08:49;;;;;;;0.60;0.60;;;11.40;99.90;;;;;;5060864;28;20456;-64
2022/05/10 03:11:21;;;;;;;1.33;1.23;;;11.40;99.90;;;;;;5062218;28;20452;-63
2022/05/10 03:13:52;;;;;;;1.17;1.00;;;11.30;99.90;;;;;;5062194;28;20449;-63
2022/05/10 03:16:24;;;;;;;1.07;0.97;;;11.20;99.90;;;;;;5062106;28;20487;-63
2022/05/10 03:18:57;;;;;;;1.20;1.10;;;11.10;99.90;;;;;;5062242;28;20463;-63
2022/05/10 03:21:28;;;;;;;0.90;0.90;;;11.00;99.90;;;;;;5062229;28;20456;-64
2022/05/10 03:23:58;;;;;;;1.10;1.10;;;11.00;99.90;;;;;;5060840;28;20452;-63
2022/05/10 03:26:30;;;;;;;1.40;1.30;;;11.00;99.90;;;;;;5062761;28;20449;-63
2022/05/10 03:29:01;;;;;;;1.40;1.30;;;10.90;99.90;;;;;;5064742;28;20468;-63
2022/05/10 03:31:33;;;;;;;1.40;1.30;;;10.90;99.90;;;;;;5060176;28;20468;-63
2022/05/10 03:36:53;;;;;;;2.00;1.57;;;11.00;99.90;;;;;;5054314;28;20476;-63
2022/05/10 03:39:23;;;;;;;1.73;1.40;;;10.90;99.90;;;;;;5059844;28;20471;-63
2022/05/10 03:41:54;;;;;;;1.87;1.40;;;10.90;99.90;;;;;;5053300;28;20818;-63
2022/05/10 03:44:25;;;;;;;1.73;1.50;;;10.90;99.90;;;;;;5064219;28;20460;-63
2022/05/10 03:46:56;;;;;;;3.50;1.50;;;10.90;99.90;;;;;;5060511;28;20468;-60
2022/05/10 03:49:29;;;;;;;1.93;1.83;;;10.90;99.90;;;;;;5061599;28;20471;-63
2022/05/10 03:52:01;;;;;;;2.50;2.30;;;10.80;99.90;;;;;;5062517;28;20456;-63
2022/05/10 03:54:32;;;;;;;2.43;2.23;;;10.90;99.90;;;;;;5060352;28;20471;-63
2022/05/10 03:57:02;;;;;;;4.00;2.40;;;10.90;99.90;;;;;;5061207;28;20480;-64
2022/05/10 03:59:33;;;;;;;2.03;1.90;;;10.80;99.90;;;;;;5063793;28;20527;-63
2022/05/10 04:02:04;;;;;;;3.13;2.47;;;10.80;99.90;;;;;;5061391;28;20468;-64
2022/05/10 04:04:40;;;;;;;3.60;2.00;;;10.70;99.90;;;;;;5060917;28;20465;-64
2022/05/10 04:07:12;;;;;;;3.30;2.30;;;10.60;99.90;;;;;;5063067;28;20464;-63
2022/05/10 04:09:43;;;;;;;3.63;2.30;;;10.60;99.90;;;;;;5060178;28;20456;-64
2022/05/10 04:12:14;;;;;;;3.20;2.50;;;10.60;99.90;;;;;;5061743;28;20782;-64
2022/05/10 04:14:45;;;;;;;3.83;3.10;;;10.60;99.90;;;;;;5060634;28;20468;-64
2022/05/10 04:17:16;;;;;;;2.43;2.23;;;10.50;99.90;;;;;;5061150;28;20499;-64
2022/05/10 04:19:48;;;;;;;2.70;2.50;;;10.60;99.90;;;;;;5060344;28;20506;-63
2022/05/10 04:22:19;;;;;;;5.43;2.70;;;10.50;99.90;;;;;;5062896;28;20475;-64
2022/05/10 04:25:12;;;;;;;3.23;2.93;;;10.50;99.90;;;;;;5063506;28;20440;-64
2022/05/10 04:27:43;;;;;;;4.00;2.90;;;10.50;99.90;;;;;;5064761;28;20448;-64
2022/05/10 04:30:15;;;;;;;3.10;2.80;;;10.30;99.90;;;;;;5062984;28;20448;-63
2022/05/10 04:32:46;;;;;;;3.17;2.90;;;10.30;99.90;;;;;;5064267;28;21301;-63
2022/05/10 04:35:19;;;;;;;2.83;2.57;;;10.30;99.90;;;;;;5062846;28;20468;-63
2022/05/10 04:37:50;;;;;;;6.73;2.60;;;10.30;99.90;;;;;;5061066;28;20488;-63
2022/05/10 04:43:09;;;;;;;2.40;2.20;;;10.30;99.90;;;;;;5060875;28;20467;-63
2022/05/10 04:45:41;;;;;;;2.50;2.30;;;10.30;99.90;;;;;;5064712;28;20540;-64
2022/05/10 04:48:12;;;;;;;2.43;2.00;;;10.30;99.90;;;;;;5063228;28;20513;-64
2022/05/10 04:50:45;;;;;;;2.93;2.40;;;10.20;99.90;;;;;;5062888;28;20468;-63
2022/05/10 04:53:17;;;;;;;2.60;2.20;;;10.30;99.90;;;;;;5063498;28;20466;-64
2022/05/10 04:55:49;;;;;;;2.73;2.40;;;10.30;99.90;;;;;;5063484;28;20487;-63
2022/05/10 04:58:20;;;;;;;1.90;1.80;;;10.30;99.90;;;;;;5063282;28;20484;-64
2022/05/10 05:00:51;;;;;;;2.53;2.20;;;10.30;99.90;;;;;;5065230;28;20449;-64
2022/05/10 05:03:22;;;;;;;2.67;2.03;;;10.30;99.90;;;;;;5064400;28;20568;-62
2022/05/10 05:05:54;;;;;;;2.87;2.60;;;10.30;99.90;;;;;;5051461;28;20453;-62
2022/05/10 05:08:25;;;;;;;3.33;2.80;;;10.40;99.90;;;;;;5063646;28;20456;-63
2022/05/10 05:10:57;;;;;;;3.20;2.90;;;10.30;99.90;;;;;;5064954;28;20460;-62
2022/05/10 05:13:28;;;;;;;4.43;2.60;;;10.40;99.90;;;;;;5064323;28;20460;-63
2022/05/10 05:15:59;;;;;;;2.80;2.60;;;10.40;99.90;;;;;;5062303;28;20464;-63
2022/05/10 05:18:30;;;;;;;3.97;3.07;;;10.40;99.90;;;;;;5056397;28;20504;-62
2022/05/10 05:21:02;;;;;;;3.90;2.47;;;10.40;99.90;;;;;;5056569;28;20460;-62
2022/05/10 05:23:33;;;;;;;3.03;2.73;;;10.40;99.90;;;;;;5063481;28;21086;-63
2022/05/10 05:26:04;;;;;;;2.93;2.63;;;10.30;99.90;;;;;;5060825;28;20455;-62
2022/05/10 05:28:36;;;;;;;3.20;2.90;;;10.30;99.90;;;;;;5063300;28;20532;-63
2022/05/10 05:31:09;;;;;;;3.70;2.90;;;10.30;99.90;;;;;;5061946;28;20460;-63
2022/05/10 05:33:40;;;;;;;8.47;3.60;;;10.30;99.90;;;;;;5061007;28;20503;-63
2022/05/10 05:36:13;;;;;;;3.83;3.53;;;10.30;99.90;;;;;;5063531;28;20559;-63
2022/05/10 05:38:44;;;;;;;3.63;3.33;;;10.30;99.90;;;;;;5059845;28;20492;-63
2022/05/10 05:41:15;;;;;;;3.80;3.40;;;10.30;99.90;;;;;;5063504;28;20465;-63
2022/05/10 05:43:46;;;;;;;3.90;3.50;;;10.30;99.90;;;;;;5063111;28;20492;-63
2022/05/10 05:46:17;;;;;;;3.93;3.40;;;10.30;99.90;;;;;;5063397;28;20460;-63
2022/05/10 05:48:48;;;;;;;3.90;3.50;;;10.30;99.90;;;;;;5062288;28;20460;-63
2022/05/10 05:51:20;;;;;;;3.00;2.70;;;10.30;99.90;;;;;;5063211;28;20495;-63
2022/05/10 05:53:51;;;;;;;5.13;3.20;;;10.20;99.90;;;;;;5061403;28;20526;-63
2022/05/10 05:56:23;;;;;;;3.50;3.20;;;10.20;99.90;;;;;;5062472;28;20496;-63
2022/05/10 05:58:53;;;;;;;3.67;2.70;;;10.20;99.90;;;;;;5063354;28;20482;-63
2022/05/10 06:01:24;;;;;;;4.97;3.17;;;10.30;99.90;;;;;;5062512;28;20923;-63
2022/05/10 06:03:59;;;;;;;3.40;3.07;;;10.40;99.90;;;;;;5062375;28;20552;-63
2022/05/10 06:06:32;;;;;;;3.07;2.87;;;10.40;99.90;;;;;;5060786;28;20464;-63
2022/05/10 06:09:03;;;;;;;5.00;3.30;;;10.30;99.90;;;;;;5061232;28;20555;-63
2022/05/10 06:11:33;;;;;;;4.23;3.13;;;10.20;99.90;;;;;;5061908;28;20466;-63
2022/05/10 06:14:04;;;;;;;4.27;3.87;;;10.20;99.90;;;;;;5050758;28;20458;-63
2022/05/10 06:16:35;;;;;;;3.50;2.97;;;10.10;99.90;;;;;;5062326;28;20492;-63
2022/05/10 06:19:06;;;;;;;5.30;3.23;;;10.10;99.90;;;;;;5062346;28;20507;-63
2022/05/10 06:21:41;;;;;;;3.20;2.90;;;10.00;99.90;;;;;;5061518;28;20472;-63
2022/05/10 06:24:11;;;;;;;4.13;3.20;;;10.00;99.90;;;;;;5060136;28;20818;-63
2022/05/10 06:26:44;;;;;;;4.20;2.77;;;10.00;99.90;;;;;;5052499;28;20470;-63
2022/05/10 06:29:15;;;;;;;4.33;3.93;;;10.00;99.90;;;;;;5061335;28;20536;-63
2022/05/10 06:31:49;;;;;;;2.93;2.73;;;10.00;99.90;;;;;;5062580;28;20543;-63
2022/05/10 06:34:20;;;;;;;4.33;3.50;;;9.90;99.90;;;;;;5062859;28;20448;-63
2022/05/10 06:36:53;;;;;;;4.23;3.63;;;9.90;99.90;;;;;;5059995;28;20462;-63
2022/05/10 06:39:23;;;;;;;4.50;3.57;;;10.00;99.90;;;;;;5056754;28;20629;-63
2022/05/10 06:41:54;;;;;;;4.10;3.70;;;9.90;99.90;;;;;;5061174;28;20472;-63
2022/05/10 06:44:26;;;;;;;3.30;3.10;;;10.00;99.90;;;;;;5058840;28;20920;-63
2022/05/10 06:46:57;;;;;;;3.90;3.30;;;9.90;99.90;;;;;;5060475;28;20467;-63
2022/05/10 06:49:28;;;;;;;4.47;3.80;;;9.90;99.90;;;;;;5061165;28;20464;-63
2022/05/10 06:52:01;;;;;;;4.83;3.87;;;9.90;99.90;;;;;;5061247;28;20468;-63
2022/05/10 06:54:32;;;;;;;4.37;3.73;;;9.90;99.90;;;;;;5059905;28;20548;-63
2022/05/10 06:57:03;;;;;;;3.97;3.60;;;10.00;99.90;;;;;;5059088;28;20472;-62
2022/05/10 06:59:33;;;;;;;4.10;3.80;;;10.00;99.90;;;;;;5062211;28;20503;-63
2022/05/10 07:02:04;;;;;;;3.83;3.53;;;9.90;99.90;;;;;;5062035;28;20457;-63
2022/05/10 07:04:35;;;;;;;4.47;3.10;;;9.90;99.90;;;;;;5060937;28;21175;-63
2022/05/10 07:07:08;;;;;;;3.73;3.27;;;9.80;99.90;;;;;;5061452;28;20993;-63
2022/05/10 07:09:38;;;;;;;4.87;3.53;;;9.80;99.90;;;;;;5060760;28;20465;-63
2022/05/10 07:12:10;;;;;;;3.83;3.53;;;9.90;99.90;;;;;;5061955;28;20468;-63
2022/05/10 07:14:43;;;;;;;3.10;2.80;;;9.90;99.90;;;;;;5060406;28;20471;-63
2022/05/10 07:17:14;;;;;;;4.73;3.10;;;9.80;99.90;;;;;;5058984;28;20495;-63
2022/05/10 07:19:45;;;;;;;4.97;3.40;;;9.90;99.90;;;;;;5062190;28;20488;-63
2022/05/10 07:22:17;;;;;;;3.07;2.80;;;9.80;99.90;;;;;;5061843;28;20466;-63
2022/05/10 07:24:48;;;;;;;3.90;3.10;;;9.90;99.90;;;;;;5059988;28;20498;-63
2022/05/10 07:27:18;;;;;;;3.40;3.17;;;9.80;99.90;;;;;;5060336;28;20596;-63
2022/05/10 07:29:49;;;;;;;4.77;2.77;;;9.80;99.90;;;;;;5061120;28;20773;-63
2022/05/10 07:32:20;;;;;;;4.30;2.80;;;9.70;99.90;;;;;;5058059;28;20456;-63
2022/05/10 07:34:51;;;;;;;3.50;2.47;;;9.70;99.90;;;;;;5057654;28;20472;-63
2022/05/10 07:37:27;;;;;;;2.73;2.53;;;9.70;99.90;;;;;;5061222;28;20455;-63
2022/05/10 07:40:00;;;;;;;5.27;3.10;;;9.80;99.90;;;;;;5059712;28;20496;-63
2022/05/10 07:42:31;;;;;;;4.60;2.83;;;9.70;99.90;;;;;;5061191;28;20472;-64
2022/05/10 07:45:02;;;;;;;3.10;2.90;;;9.70;99.90;;;;;;5059033;28;20471;-63
2022/05/10 07:47:33;;;;;;;3.73;3.37;;;9.70;99.90;;;;;;5060885;28;20463;-63
2022/05/10 07:50:04;;;;;;;2.63;2.43;;;9.70;99.90;;;;;;5060253;28;20456;-63
2022/05/10 07:52:36;;;;;;;4.37;2.97;;;9.60;99.90;;;;;;5060801;28;20468;-63
2022/05/10 07:55:08;;;;;;;2.90;2.43;;;9.50;99.90;;;;;;5060055;28;20452;-64
2022/05/10 07:57:39;;;;;;;2.50;2.30;;;9.40;99.90;;;;;;5061721;28;20444;-64
2022/05/10 08:00:11;;;;;;;2.80;2.57;;;9.40;99.90;;;;;;5058628;28;20476;-63
2022/05/10 08:02:43;;;;;;;3.90;2.23;;;9.40;99.90;;;;;;5059807;28;20470;-63
2022/05/10 08:05:19;;;;;;;5.50;2.40;;;9.30;99.90;;;;;;5055591;28;20552;-63
2022/05/10 08:07:51;;;;;;;2.93;2.47;;;9.40;99.90;;;;;;5060882;28;20524;-63
2022/05/10 08:10:23;;;;;;;2.40;2.20;;;9.30;99.90;;;;;;5057016;28;20468;-63
2022/05/10 08:12:54;;;;;;;3.43;2.90;;;9.20;99.90;;;;;;5060642;28;20460;-64
2022/05/10 08:15:25;;;;;;;2.70;2.50;;;9.20;99.90;;;;;;5060175;28;20464;-63
2022/05/10 08:17:55;;;;;;;3.77;2.43;;;9.10;99.90;;;;;;5060148;28;20492;-63
2022/05/10 08:20:26;;;;;;;3.23;2.67;;;9.10;99.90;;;;;;5059926;28;20496;-63
2022/05/10 08:22:59;;;;;;;4.55;2.30;;;9.10;99.90;;;;;;5060760;28;20461;-63
2022/05/10 08:25:29;;;;;;;2.77;2.33;;;9.10;99.90;;;;;;5060351;28;20218;-64
2022/05/10 08:28:00;;;;;;;3.10;2.70;;;9.10;99.90;;;;;;5060122;28;20819;-62
2022/05/10 08:30:31;;;;;;;2.60;2.40;;;9.10;99.90;;;;;;5060264;28;20510;-63
2022/05/10 08:33:02;;;;;;;3.42;2.70;;;9.10;99.90;;;;;;5061250;28;20224;-63
2022/05/10 08:35:49;;;;;;;2.50;2.30;;;9.10;99.90;;;;;;5058784;28;20297;-63
2022/05/10 08:38:23;;;;;;;3.67;2.60;;;9.20;99.90;;;;;;5048653;28;20462;-63
2022/05/10 08:41:00;;;;;;;2.60;2.20;;;9.10;99.90;;;;;;5060238;28;20499;-63
2022/05/10 08:47:27;;;;;;;2.40;2.20;;;9.10;99.90;;;;;;5050127;28;20513;-63
2022/05/10 08:50:02;;;;;;;2.53;2.33;;;9.10;99.90;;;;;;5060416;28;20892;-63
2022/05/10 08:52:53;;;;;;;2.63;2.00;;;9.10;99.90;;;;;;5059942;28;20463;-63
2022/05/10 08:55:32;;;;;;;4.30;2.30;;;9.00;99.90;;;;;;5052499;28;20468;-64
2022/05/10 08:58:10;;;;;;;2.70;1.80;;;9.00;99.90;;;;;;5060164;28;20643;-63
2022/05/10 09:00:47;;;;;;;2.77;2.33;;;9.00;99.90;;;;;;5060417;28;20513;-63
2022/05/10 09:03:24;;;;;;;2.23;2.03;;;8.90;99.90;;;;;;5058611;28;20455;-63
2022/05/10 09:06:01;;;;;;;2.30;2.10;;;8.90;99.90;;;;;;5062363;28;20846;-63
2022/05/10 09:08:39;;;;;;;3.67;1.70;;;8.80;99.90;;;;;;5063098;28;20486;-63
2022/05/10 09:11:15;;;;;;;2.40;2.20;;;8.80;99.90;;;;;;5064336;28;20463;-63
2022/05/10 09:13:46;;;;;;;1.97;1.80;;;8.80;99.90;;;;;;5062946;28;20210;-63
2022/05/10 09:16:17;;;;;;;3.42;1.90;;;8.80;99.90;;;;;;5061975;28;20492;-63
2022/05/10 09:18:52;;;;;;;3.47;2.00;;;8.80;99.90;;;;;;5064305;28;20292;-63
2022/05/10 09:21:25;;;;;;;2.23;1.83;;;8.80;99.90;;;;;;5061619;28;20894;-63
2022/05/10 09:24:11;;;;;;;2.33;2.10;;;8.80;99.90;;;;;;5062285;28;20571;-63
2022/05/10 09:26:46;;;;;;;2.10;2.00;;;8.70;99.90;;;;;;5063585;28;20487;-63
2022/05/10 09:29:25;;;;;;;3.15;2.13;;;8.60;99.90;;;;;;5063158;28;20201;-63
2022/05/10 09:34:57;;;;;;;3.65;2.22;;;8.50;99.90;;;;;;5063244;28;20518;-63
2022/05/10 09:37:32;;;;;;;2.60;2.00;;;8.50;99.90;;;;;;5052584;28;20266;-63
2022/05/10 09:40:21;;;;;;;3.83;2.10;;;8.50;99.90;;;;;;5063176;28;20301;-63
2022/05/10 09:42:56;;;;;;;3.80;2.28;;;8.50;99.90;;;;;;5062038;28;20198;-63
2022/05/10 09:45:28;;;;;;;2.92;1.80;;;8.50;99.90;;;;;;5063642;28;20664;-63
2022/05/10 09:48:02;;;;;;;2.92;1.85;;;8.40;99.90;;;;;;5050014;28;20241;-63
2022/05/10 09:50:35;;;;;;;2.20;2.00;;;8.40;99.90;;;;;;5063151;28;20206;-63
2022/05/10 09:53:20;;;;;;;2.83;2.20;;;8.40;99.90;;;;;;5062635;28;20206;-63
2022/05/10 09:56:00;;;;;;;1.90;1.80;;;8.40;99.90;;;;;;5061311;28;20542;-63
2022/05/10 09:58:35;;;;;;;2.67;2.20;;;8.40;99.90;;;;;;5062365;28;20216;-63
2022/05/10 10:01:11;;;;;;;2.95;2.17;;;8.30;99.90;;;;;;5061923;28;20328;-63
2022/05/10 10:03:45;;;;;;;2.92;2.65;;;8.40;99.90;;;;;;5062268;28;20228;-63
2022/05/10 10:06:18;;;;;;;2.47;1.90;;;8.40;99.90;;;;;;5063184;28;20202;-63
2022/05/10 10:08:50;;;;;;;2.40;2.20;;;8.30;99.90;;;;;;5060802;28;20213;-63
2022/05/10 10:11:29;;;;;;;2.20;2.10;;;8.30;99.90;;;;;;5063389;28;20576;-63
2022/05/10 10:14:04;;;;;;;2.83;2.30;;;8.30;99.90;;;;;;5051100;28;20297;-63
2022/05/10 10:16:39;;;;;;;3.53;2.40;;;8.30;99.90;;;;;;5062452;28;20252;-63
2022/05/10 10:19:13;;;;;;;3.22;2.53;;;8.30;99.90;;;;;;5061250;28;20216;-63
2022/05/10 10:21:48;;;;;;;3.53;2.50;;;8.30;99.90;;;;;;5061351;28;20233;-63
2022/05/10 10:24:25;;;;;;;2.20;2.00;;;8.30;99.90;;;;;;5061143;28;20205;-63
2022/05/10 10:27:03;;;;;;;2.78;2.13;;;8.30;99.90;;;;;;5062478;28;20212;-63
2022/05/10 10:29:49;;;;;;;2.45;2.25;;;8.30;99.90;;;;;;5060825;28;20217;-63
2022/05/10 10:32:24;;;;;;;2.70;2.30;;;8.20;99.90;;;;;;5060714;28;20225;-63
2022/05/10 10:34:59;;;;;;;2.42;2.28;;;8.20;99.90;;;;;;5061874;28;20229;-63
2022/05/10 10:37:37;;;;;;;2.55;2.35;;;8.20;99.90;;;;;;5059903;28;20205;-63
2022/05/10 10:40:19;;;;;;;2.40;2.20;;;8.10;99.90;;;;;;5053592;28;20202;-63
2022/05/10 10:42:56;;;;;;;4.22;2.58;;;8.10;99.90;;;;;;5061897;28;20220;-63
2022/05/10 10:45:37;;;;;;;3.28;2.13;;;8.10;99.90;;;;;;5061241;28;20206;-64
2022/05/10 10:48:30;;;;;;;3.17;2.10;;;8.20;99.90;;;;;;5060982;28;20297;-63
2022/05/10 10:51:01;;;;;;;2.83;2.10;;;8.20;99.90;;;;;;5060276;28;20225;-64
2022/05/10 10:53:34;;;;;;;2.40;2.20;;;8.10;99.90;;;;;;5062188;28;20213;-63
2022/05/10 10:56:28;;;;;;;2.25;2.00;;;8.10;99.90;;;;;;5062069;28;20221;-63
2022/05/10 10:59:21;;;;;;;1.92;1.58;;;8.20;99.90;;;;;;5054759;28;20607;-63
2022/05/10 11:02:16;;;;;;;2.55;2.35;;;8.30;99.90;;;;;;5061683;28;20221;-63
2022/05/10 11:05:07;;;;;;;4.50;3.10;;;8.30;99.90;;;;;;5052913;28;20294;-63
2022/05/10 11:07:49;;;;;;;2.38;2.05;;;8.20;99.90;;;;;;5058554;28;20216;-63
2022/05/10 11:10:27;;;;;;;3.75;2.90;;;8.10;99.90;;;;;;5055768;28;20205;-63
2022/05/10 11:13:12;;;;;;;3.80;2.25;;;8.10;99.90;;;;;;5059881;28;20213;-63
2022/05/10 11:15:51;;;;;;;3.42;2.53;;;8.00;99.90;;;;;;5060530;28;20213;-63
2022/05/10 11:18:36;;;;;;;2.58;2.38;;;8.00;99.90;;;;;;5049205;28;20190;-63
2022/05/10 11:21:20;;;;;;;3.53;2.65;;;7.90;99.90;;;;;;5055123;28;20225;-63
2022/05/10 11:24:03;;;;;;;2.55;2.35;;;7.80;99.90;;;;;;5060353;28;20209;-63
2022/05/10 11:26:45;;;;;;;2.13;1.92;;;7.80;99.90;;;;;;5061432;28;20209;-63
2022/05/10 11:29:39;;;;;;;2.78;2.45;;;7.80;99.90;;;;;;5061235;28;20304;-63
2022/05/10 11:32:21;;;;;;;3.60;2.80;;;7.70;99.90;;;;;;5058135;28;20625;-63
2022/05/10 11:35:17;;;;;;;2.30;2.10;;;7.70;99.90;;;;;;5061226;28;21770;-63
2022/05/10 11:37:53;;;;;;;2.28;2.00;;;7.60;99.90;;;;;;5049026;28;20224;-63
2022/05/10 11:40:45;;;;;;;3.28;2.80;;;7.50;99.90;;;;;;5059700;28;20656;-63
2022/05/10 11:43:48;;;;;;;5.15;2.45;;;7.50;99.90;;;;;;5060787;28;20232;-63
2022/05/10 11:46:50;;;;;;;3.03;2.72;;;7.40;99.90;;;;;;5059970;28;20201;-63
2022/05/10 11:49:48;;;;;;;3.38;2.10;;;7.30;99.90;;;;;;5012155;28;20201;-63
2022/05/10 11:52:50;;;;;;;2.47;2.28;;;7.20;99.90;;;;;;5058199;28;20311;-63
2022/05/10 11:55:34;;;;;;;5.30;2.50;;;7.10;99.90;;;;;;5056460;28;20223;-63
2022/05/10 11:58:10;;;;;;;3.97;2.80;;;7.20;99.90;;;;;;5060664;28;20288;-63
2022/05/10 12:00:54;;;;;;;3.40;3.10;;;7.10;99.90;;;;;;5061800;28;20201;-63
2022/05/10 12:03:55;;;;;;;4.28;3.20;;;7.10;99.90;;;;;;5054158;28;21031;-63
2022/05/10 12:06:46;;;;;;;6.68;3.38;;;7.00;99.90;;;;;;5049857;28;20205;-63
2022/05/10 12:09:34;;;;;;;4.65;3.17;;;7.00;99.90;;;;;;5059255;28;20217;-63
2022/05/10 12:12:06;;;;;;;3.33;3.00;;;6.90;99.90;;;;;;5058365;28;20212;-63
2022/05/10 12:21:21;;;;;;;5.10;3.03;;;6.80;99.90;;;;;;5058189;28;20206;-63
2022/05/10 12:24:30;;;;;;;4.00;2.85;;;6.70;99.90;;;;;;5045107;28;20205;-63
2022/05/10 12:27:01;;;;;;;3.85;2.65;;;6.70;99.90;;;;;;5053358;28;20565;-63
2022/05/10 12:29:52;;;;;;;3.60;3.30;;;6.70;99.90;;;;;;5059579;28;20210;-63
2022/05/10 12:32:47;;;;;;;3.72;3.35;;;6.70;99.90;;;;;;5056210;28;20244;-63
2022/05/10 12:35:40;;;;;;;3.70;2.90;;;6.70;99.90;;;;;;5060172;28;20206;-63
2022/05/10 12:38:43;;;;;;;5.22;2.97;;;6.70;99.90;;;;;;5051913;28;20217;-63
2022/05/10 12:41:46;;;;;;;4.60;3.00;;;6.60;99.90;;;;;;5059308;28;20232;-63
2022/05/10 12:44:39;;;;;;;3.85;2.95;;;6.60;99.90;;;;;;5052514;28;20301;-63
2022/05/10 12:47:23;;;;;;;4.97;3.10;;;6.50;99.90;;;;;;5064298;28;20205;-63
2022/05/10 12:50:13;;;;;;;2.80;2.60;;;6.50;99.90;;;;;;5046834;28;20195;-63
2022/05/10 12:52:47;;;;;;;3.25;2.83;;;6.30;99.90;;;;;;5061658;28;20222;-63
2022/05/10 12:55:21;;;;;;;5.72;2.78;;;6.30;99.90;;;;;;5062794;28;20210;-63
2022/05/10 12:57:58;;;;;;;3.55;2.85;;;6.30;99.90;;;;;;5063451;28;20301;-63
2022/05/10 13:00:34;;;;;;;4.47;3.70;;;6.30;99.90;;;;;;5061216;28;20209;-63
2022/05/10 13:03:09;;;;;;;5.05;4.00;;;6.40;99.90;;;;;;5052088;28;20225;-64
2022/05/10 13:06:05;;;;;;;3.20;2.90;;;6.30;99.90;;;;;;5062779;28;20209;-64
2022/05/10 13:08:56;;;;;;;3.60;3.30;;;6.30;99.90;;;;;;5062607;28;20704;-64
2022/05/10 13:11:44;;;;;;;3.80;3.28;;;6.30;99.90;;;;;;5062599;28;20232;-64
2022/05/10 13:14:17;;;;;;;3.88;3.40;;;6.20;99.90;;;;;;5063357;28;20206;-64
2022/05/10 13:16:51;;;;;;;3.67;3.38;;;6.10;99.90;;;;;;5063394;28;20233;-64
2022/05/10 13:19:23;;;;;;;3.40;3.08;;;6.20;99.90;;;;;;5064510;28;20205;-64
2022/05/10 13:22:08;;;;;;;4.00;3.60;;;6.10;99.90;;;;;;5064332;28;20221;-64
2022/05/10 13:24:39;;;;;;;3.65;3.35;;;6.20;99.90;;;;;;5063499;28;20205;-64
2022/05/10 13:27:21;;;;;;;3.95;3.55;;;6.20;99.90;;;;;;5064185;28;20206;-64
2022/05/10 13:29:53;;;;;;;4.03;3.72;;;6.10;99.90;;;;;;5066044;28;20201;-64
2022/05/10 13:32:34;;;;;;;3.53;3.03;;;6.00;99.90;;;;;;5064149;28;20201;-65
2022/05/10 13:35:11;;;;;;;4.82;3.60;;;6.20;99.90;;;;;;5064442;28;20216;-63
2022/05/10 13:37:45;;;;;;;4.65;3.70;;;6.20;99.90;;;;;;5064329;28;20211;-63
2022/05/10 13:40:26;;;;;;;3.83;3.03;;;6.30;99.90;;;;;;5063338;28;20212;-64
2022/05/10 13:43:00;;;;;;;5.28;4.03;;;6.30;99.90;;;;;;5063721;28;20233;-64
2022/05/10 13:45:34;;;;;;;5.80;4.00;;;6.30;99.90;;;;;;5064005;28;20262;-64
2022/05/10 13:48:08;;;;;;;4.72;4.32;;;6.40;99.90;;;;;;5053449;28;20240;-64
2022/05/10 13:50:40;;;;;;;5.45;4.32;;;6.40;99.90;;;;;;5064275;28;20252;-64
2022/05/10 13:53:16;;;;;;;4.47;4.03;;;6.40;99.90;;;;;;5062511;28;20198;-64
2022/05/10 13:55:55;;;;;;;4.45;3.90;;;6.50;99.90;;;;;;5064441;28;20212;-64
2022/05/10 13:58:38;;;;;;;6.43;5.75;;;6.50;99.90;;;;;;5063731;28;20232;-64
2022/05/10 14:01:13;;;;;;;4.43;4.03;;;6.50;99.90;;;;;;5063928;28;20217;-64
2022/05/10 14:03:44;;;;;;;4.90;4.20;;;6.50;99.90;;;;;;5064090;28;20661;-64